< < Back
Terminal Aerodrome Forecast


Current Version              Previous Versions:   1  2  3  4  5  6  7  8  9  

Terminal Aerodrome Forecast

037
FTUS44 KMRX 301400 AAA
TAFCHA
TAF AMD
KCHA 301403Z 3014/0112 00000KT 2SM BR BKN002
     FM301500 32004KT 4SM BR SCT009 BKN015
     FM301600 32004KT P6SM SCT250
     FM010100 00000KT P6SM SKC
     FM010900 00000KT 1SM BR SCT005=

Latest METAR

346
SAUS80 KWBC 301600 RRA
MTRCHA
METAR KCHA 301553Z 34003KT 10SM FEW012 SCT020 23/18 A2998 RMK AO2 SLP145
T02330178


USA.gov is the U.S. government's official web portal to all federal, state and local government web resources and services.